createdAt,value
2022-12-29T00:02:05.268Z,9.95
2022-12-29T00:04:32.302Z,9.96
2022-12-29T00:07:05.172Z,9.91
2022-12-29T00:09:39.309Z,10.01
2022-12-29T00:12:13.023Z,10.06
2022-12-29T00:14:58.472Z,10.07
2022-12-29T00:17:32.038Z,10.14
2022-12-29T00:20:24.056Z,10.23
2022-12-29T00:23:35.997Z,10.19
2022-12-29T00:26:42.073Z,10.20
2022-12-29T00:29:34.131Z,10.21
2022-12-29T00:32:26.115Z,10.17
2022-12-29T00:35:18.316Z,10.19
2022-12-29T00:38:16.993Z,10.17
2022-12-29T00:41:10.228Z,10.11
2022-12-29T00:44:02.053Z,10.27
2022-12-29T00:46:35.087Z,10.29
2022-12-29T00:49:27.330Z,10.23
2022-12-29T00:52:02.049Z,10.22
2022-12-29T00:54:33.317Z,10.22
2022-12-29T00:57:09.301Z,10.09
2022-12-29T00:59:37.451Z,10.20
2022-12-29T01:02:11.473Z,10.22
2022-12-29T01:04:38.522Z,10.19
2022-12-29T01:07:12.222Z,10.20
2022-12-29T01:09:57.457Z,10.20
2022-12-29T01:12:48.105Z,10.28
2022-12-29T01:15:16.447Z,10.29
2022-12-29T01:17:50.135Z,10.24
2022-12-29T01:20:17.208Z,10.16
2022-12-29T01:22:45.127Z,10.14
2022-12-29T01:25:19.116Z,10.19
2022-12-29T01:27:53.308Z,10.23
2022-12-29T01:30:26.685Z,10.16
2022-12-29T01:32:53.549Z,10.24
2022-12-29T01:35:27.102Z,10.25
2022-12-29T01:37:54.046Z,10.15
2022-12-29T01:40:28.343Z,10.12
2022-12-29T01:42:55.315Z,10.13
2022-12-29T01:45:29.537Z,10.12
2022-12-29T01:48:11.301Z,10.11
2022-12-29T01:50:49.386Z,10.03
2022-12-29T01:53:37.394Z,10.02
2022-12-29T01:56:15.317Z,9.90
2022-12-29T01:58:47.025Z,9.82
2022-12-29T02:01:22.373Z,9.78
2022-12-29T02:03:57.199Z,9.70
2022-12-29T02:06:27.768Z,9.66
2022-12-29T02:09:03.161Z,9.51
2022-12-29T02:11:31.119Z,9.61
2022-12-29T02:14:05.240Z,9.51
2022-12-29T02:16:47.282Z,9.61
2022-12-29T02:19:42.175Z,9.56
2022-12-29T02:22:18.343Z,9.56
2022-12-29T02:25:03.263Z,9.57
2022-12-29T02:28:14.379Z,9.63
2022-12-29T02:30:59.438Z,9.57
2022-12-29T02:34:08.519Z,9.77
2022-12-29T02:36:55.428Z,9.86
2022-12-29T02:39:36.127Z,9.87
2022-12-29T02:42:20.149Z,9.89
2022-12-29T02:45:01.405Z,9.96
2022-12-29T02:47:43.355Z,9.93
2022-12-29T02:50:28.049Z,9.94
2022-12-29T02:53:07.247Z,9.96
2022-12-29T02:55:34.202Z,9.96
2022-12-29T02:58:16.282Z,9.97
2022-12-29T03:01:19.001Z,10.01
2022-12-29T03:04:14.250Z,10.01
2022-12-29T03:07:02.119Z,9.97
2022-12-29T03:09:49.225Z,9.99
2022-12-29T03:13:07.439Z,9.99
2022-12-29T03:16:12.217Z,9.94
2022-12-29T03:18:55.307Z,9.93
2022-12-29T03:22:11.444Z,9.88
2022-12-29T03:24:57.209Z,9.86
2022-12-29T03:27:37.387Z,9.81
2022-12-29T03:30:13.212Z,9.88
2022-12-29T03:33:03.218Z,9.93
2022-12-29T03:35:44.537Z,9.89
2022-12-29T03:38:24.744Z,9.99
2022-12-29T03:41:03.452Z,10.01
2022-12-29T03:43:31.184Z,10.03
2022-12-29T03:46:10.445Z,10.05
2022-12-29T03:48:44.301Z,10.12
2022-12-29T03:51:18.284Z,10.14
2022-12-29T03:53:45.733Z,10.22
2022-12-29T03:56:19.216Z,10.35
2022-12-29T03:58:52.313Z,10.39
2022-12-29T04:01:26.473Z,10.38
2022-12-29T04:03:53.904Z,10.35
2022-12-29T04:06:27.299Z,10.30
2022-12-29T04:09:00.184Z,10.21
2022-12-29T04:11:32.906Z,10.17
2022-12-29T04:14:06.193Z,10.14
2022-12-29T04:16:39.271Z,10.11
2022-12-29T04:19:16.101Z,10.05
2022-12-29T04:21:50.383Z,10.09
2022-12-29T04:24:30.485Z,10.08
2022-12-29T04:27:04.367Z,10.06
2022-12-29T04:29:31.513Z,10.18
2022-12-29T04:32:05.121Z,10.20
2022-12-29T04:34:31.785Z,10.26
2022-12-29T04:37:05.173Z,10.24
2022-12-29T04:39:38.600Z,10.20
2022-12-29T04:42:06.024Z,10.18
2022-12-29T04:44:44.888Z,10.20
2022-12-29T04:47:18.393Z,10.18
2022-12-29T04:49:45.684Z,10.19
2022-12-29T04:52:19.382Z,10.18
2022-12-29T04:54:46.496Z,10.20
2022-12-29T04:57:20.506Z,10.24
2022-12-29T04:59:47.408Z,10.20
2022-12-29T05:02:14.646Z,10.17
2022-12-29T05:04:48.366Z,10.18
2022-12-29T05:07:15.393Z,10.15
2022-12-29T05:09:49.443Z,10.14
2022-12-29T05:12:16.723Z,10.18
2022-12-29T05:14:51.301Z,10.18
2022-12-29T05:17:18.360Z,10.16
2022-12-29T05:19:52.437Z,10.19
2022-12-29T05:22:19.821Z,10.18
2022-12-29T05:25:07.555Z,10.22
2022-12-29T05:27:34.430Z,10.10
2022-12-29T05:30:08.333Z,10.15
2022-12-29T05:32:35.381Z,10.09
2022-12-29T05:35:02.568Z,10.02
2022-12-29T05:37:36.431Z,9.94
2022-12-29T05:40:04.338Z,9.82
2022-12-29T05:42:38.291Z,9.73
2022-12-29T05:45:08.419Z,9.69
2022-12-29T05:47:42.428Z,9.58
2022-12-29T05:50:10.064Z,9.57
2022-12-29T05:52:43.380Z,9.61
2022-12-29T05:55:10.683Z,9.49
2022-12-29T05:57:44.287Z,9.47
2022-12-29T06:00:19.287Z,9.46
2022-12-29T06:02:46.920Z,9.42
2022-12-29T06:05:20.339Z,9.34
2022-12-29T06:07:47.142Z,9.17
2022-12-29T06:10:20.200Z,9.16
2022-12-29T06:12:48.350Z,9.12
2022-12-29T06:15:22.166Z,9.12
2022-12-29T06:17:49.081Z,8.99
2022-12-29T06:20:22.257Z,8.93
2022-12-29T06:22:49.213Z,8.92
2022-12-29T06:25:30.294Z,8.97
2022-12-29T06:28:03.323Z,8.92
2022-12-29T06:30:36.259Z,8.86
2022-12-29T06:33:03.715Z,8.81
2022-12-29T06:35:37.212Z,8.76
2022-12-29T06:38:10.500Z,8.73
2022-12-29T06:40:46.670Z,8.73
2022-12-29T06:43:20.313Z,8.73
2022-12-29T06:45:47.189Z,8.71
2022-12-29T06:48:20.563Z,8.70
2022-12-29T06:50:47.271Z,8.67
2022-12-29T06:53:20.505Z,8.71
2022-12-29T06:55:48.843Z,8.74
2022-12-29T06:58:29.660Z,8.79
2022-12-29T07:00:56.713Z,8.80
2022-12-29T07:03:30.454Z,8.89
2022-12-29T07:06:06.275Z,8.92
2022-12-29T07:08:39.444Z,8.95
2022-12-29T07:11:07.343Z,8.97
2022-12-29T07:13:40.375Z,9.00
2022-12-29T07:16:15.976Z,8.94
2022-12-29T07:18:51.416Z,9.04
2022-12-29T07:21:18.993Z,8.93
2022-12-29T07:23:52.514Z,8.97
2022-12-29T07:26:29.256Z,9.04
2022-12-29T07:29:09.351Z,9.04
2022-12-29T07:31:36.425Z,9.08
2022-12-29T07:34:03.391Z,9.05
2022-12-29T07:36:37.368Z,9.06
2022-12-29T07:39:04.639Z,9.06
2022-12-29T07:41:38.340Z,9.11
2022-12-29T07:44:05.390Z,9.08
2022-12-29T07:46:55.809Z,9.06
2022-12-29T07:49:31.316Z,9.00
2022-12-29T07:52:05.433Z,8.98
2022-12-29T07:54:32.815Z,8.99
2022-12-29T07:57:08.468Z,8.97
2022-12-29T07:59:42.420Z,8.79
2022-12-29T08:02:19.384Z,8.68
2022-12-29T08:04:46.296Z,8.57
2022-12-29T08:07:13.137Z,8.51
2022-12-29T08:09:46.420Z,8.39
2022-12-29T08:12:19.276Z,8.34
2022-12-29T08:14:53.451Z,8.33
2022-12-29T08:17:20.137Z,8.24
2022-12-29T08:19:53.286Z,8.16
2022-12-29T08:22:19.974Z,8.19
2022-12-29T08:25:00.361Z,8.17
2022-12-29T08:27:34.556Z,8.05
2022-12-29T08:30:08.362Z,8.14
2022-12-29T08:32:35.159Z,8.11
2022-12-29T08:35:08.495Z,8.09
2022-12-29T08:37:35.659Z,8.13
2022-12-29T08:40:11.314Z,8.12
2022-12-29T08:42:38.666Z,8.28
2022-12-29T08:45:06.052Z,8.37
2022-12-29T08:47:41.803Z,8.49
2022-12-29T08:50:09.208Z,8.58
2022-12-29T08:52:42.414Z,8.64
2022-12-29T08:55:16.602Z,8.75
2022-12-29T08:57:43.425Z,8.79
2022-12-29T09:00:19.579Z,8.94
2022-12-29T09:02:53.558Z,9.25
2022-12-29T09:05:21.121Z,9.35
2022-12-29T09:07:54.500Z,9.50
2022-12-29T09:10:21.581Z,9.55
2022-12-29T09:12:49.427Z,9.53
2022-12-29T09:15:23.595Z,9.52
2022-12-29T09:17:57.560Z,9.57
2022-12-29T09:20:24.450Z,9.74
2022-12-29T09:22:51.944Z,9.86
2022-12-29T09:25:28.089Z,9.96
2022-12-29T09:28:06.080Z,9.96
2022-12-29T09:30:39.466Z,9.86
2022-12-29T09:33:06.742Z,9.82
2022-12-29T09:35:40.467Z,9.86
2022-12-29T09:38:14.629Z,9.89
2022-12-29T09:40:49.038Z,9.91
2022-12-29T09:43:19.049Z,9.87
2022-12-29T09:46:12.195Z,9.76
2022-12-29T09:48:44.919Z,9.69
2022-12-29T09:51:25.361Z,9.73
2022-12-29T09:53:59.914Z,9.66
2022-12-29T09:56:34.513Z,9.65
2022-12-29T09:59:32.529Z,9.55
2022-12-29T10:03:05.578Z,9.53
2022-12-29T10:05:43.011Z,9.56
2022-12-29T10:08:19.398Z,9.56
2022-12-29T10:10:58.040Z,9.54
2022-12-29T10:13:44.403Z,9.53
2022-12-29T10:16:21.601Z,9.48
2022-12-29T10:18:58.621Z,9.59
2022-12-29T10:21:44.572Z,9.65
2022-12-29T10:24:20.876Z,9.68
2022-12-29T10:27:04.625Z,9.72
2022-12-29T10:29:36.589Z,9.71
2022-12-29T10:32:39.694Z,9.83
2022-12-29T10:35:20.001Z,9.86
2022-12-29T10:37:58.596Z,9.78
2022-12-29T10:40:38.138Z,9.84
2022-12-29T10:43:31.321Z,9.87
2022-12-29T10:46:06.858Z,9.84
2022-12-29T10:48:42.278Z,9.78
2022-12-29T10:51:16.364Z,9.74
2022-12-29T10:53:54.265Z,9.60
2022-12-29T10:56:47.270Z,9.65
2022-12-29T10:59:27.426Z,9.54
2022-12-29T11:02:06.097Z,9.47
2022-12-29T11:04:42.604Z,9.44
2022-12-29T11:07:18.960Z,9.44
2022-12-29T11:09:47.938Z,9.44
2022-12-29T11:12:27.424Z,9.48
2022-12-29T11:15:16.369Z,9.46
2022-12-29T11:17:49.510Z,9.47
2022-12-29T11:20:36.284Z,9.56
2022-12-29T11:23:11.353Z,9.53
2022-12-29T11:25:44.473Z,9.50
2022-12-29T11:28:18.173Z,9.54
2022-12-29T11:30:51.440Z,9.54
2022-12-29T11:33:18.428Z,9.51
2022-12-29T11:35:45.456Z,9.39
2022-12-29T11:38:29.590Z,9.52
2022-12-29T11:41:00.255Z,9.40
2022-12-29T11:43:45.661Z,9.49
2022-12-29T11:46:24.398Z,9.48
2022-12-29T11:48:58.366Z,9.40
2022-12-29T11:51:36.326Z,9.46
2022-12-29T11:54:12.578Z,9.43
2022-12-29T11:56:44.704Z,9.29
2022-12-29T11:59:39.566Z,9.24
2022-12-29T12:02:30.504Z,9.15
2022-12-29T12:05:19.448Z,9.12
2022-12-29T12:07:52.376Z,9.14
2022-12-29T12:10:31.462Z,9.14
2022-12-29T12:13:06.480Z,9.22
2022-12-29T12:15:50.141Z,9.29
2022-12-29T12:18:51.042Z,9.33
2022-12-29T12:21:29.453Z,9.36
2022-12-29T12:24:01.961Z,9.39
2022-12-29T12:27:00.363Z,9.39
2022-12-29T12:29:38.718Z,9.43
2022-12-29T12:32:21.499Z,9.36
2022-12-29T12:34:56.493Z,9.45
2022-12-29T12:38:05.475Z,9.42
2022-12-29T12:41:21.325Z,9.44
2022-12-29T12:43:58.529Z,9.38
2022-12-29T12:46:47.039Z,9.34
2022-12-29T12:49:35.436Z,9.26
2022-12-29T12:52:30.374Z,9.23
2022-12-29T12:55:07.790Z,9.10
2022-12-29T12:58:02.595Z,9.11
2022-12-29T13:00:39.414Z,9.06
2022-12-29T13:03:48.513Z,9.03
2022-12-29T13:06:47.406Z,8.99
2022-12-29T13:09:32.452Z,8.96
2022-12-29T13:12:02.129Z,8.93
2022-12-29T13:14:44.465Z,8.91
2022-12-29T13:17:36.429Z,8.89
2022-12-29T13:20:42.515Z,8.89
2022-12-29T13:23:33.382Z,8.93
2022-12-29T13:26:29.428Z,8.94
2022-12-29T13:29:24.603Z,8.95
2022-12-29T13:32:20.437Z,8.94
2022-12-29T13:35:08.499Z,8.93
2022-12-29T13:37:58.414Z,8.92
2022-12-29T13:40:27.631Z,8.82
2022-12-29T13:43:02.539Z,8.80
2022-12-29T13:45:32.331Z,8.80
2022-12-29T13:48:09.432Z,8.82
2022-12-29T13:50:46.442Z,8.88
2022-12-29T13:53:38.388Z,8.94
2022-12-29T13:56:21.600Z,8.97
2022-12-29T13:59:11.460Z,8.95
2022-12-29T14:02:09.345Z,8.99
2022-12-29T14:04:43.543Z,9.03
2022-12-29T14:07:18.686Z,9.01
2022-12-29T14:09:59.424Z,9.08
2022-12-29T14:12:31.544Z,9.13
2022-12-29T14:15:23.499Z,9.20
2022-12-29T14:18:10.876Z,9.21
2022-12-29T14:20:45.466Z,9.16
2022-12-29T14:23:12.136Z,9.25
2022-12-29T14:26:14.560Z,9.26
2022-12-29T14:28:53.478Z,9.17
2022-12-29T14:31:28.458Z,9.21
2022-12-29T14:34:14.493Z,9.20
2022-12-29T14:37:03.429Z,9.27
2022-12-29T14:39:42.302Z,9.20
2022-12-29T14:42:18.416Z,9.25
2022-12-29T14:45:17.873Z,9.29
2022-12-29T14:47:55.581Z,9.26
2022-12-29T14:50:22.135Z,9.29
2022-12-29T14:53:06.415Z,9.26
2022-12-29T14:55:51.008Z,9.21
2022-12-29T14:58:35.453Z,9.25
2022-12-29T15:01:03.200Z,9.25
2022-12-29T15:03:43.400Z,9.23
2022-12-29T15:06:14.543Z,9.25
2022-12-29T15:08:55.511Z,9.22
2022-12-29T15:11:44.502Z,9.24
2022-12-29T15:14:41.585Z,9.23
2022-12-29T15:17:33.568Z,9.23
2022-12-29T15:20:24.491Z,9.21
2022-12-29T15:23:02.321Z,9.16
2022-12-29T15:25:43.721Z,9.21
2022-12-29T15:28:26.407Z,9.12
2022-12-29T15:31:11.456Z,9.15
2022-12-29T15:33:41.739Z,9.12
2022-12-29T15:36:23.448Z,9.10
2022-12-29T15:38:50.895Z,9.11
2022-12-29T15:41:36.531Z,9.11
2022-12-29T15:44:22.056Z,9.05
2022-12-29T15:46:55.483Z,9.04
2022-12-29T15:49:32.581Z,9.33
2022-12-29T15:51:59.793Z,14.79
2022-12-29T15:54:37.520Z,17.89
2022-12-29T15:57:05.111Z,16.10
2022-12-29T15:59:41.454Z,11.69
2022-12-29T16:02:12.710Z,9.98
2022-12-29T16:05:16.200Z,9.23
2022-12-29T16:07:43.455Z,8.88
2022-12-29T16:10:41.568Z,8.69
2022-12-29T16:13:20.465Z,8.64
2022-12-29T16:15:55.823Z,8.56
2022-12-29T16:18:30.502Z,8.45
2022-12-29T16:21:09.747Z,8.36
2022-12-29T16:23:38.274Z,8.48
2022-12-29T16:26:25.501Z,8.40
2022-12-29T16:29:10.539Z,8.45
2022-12-29T16:31:51.897Z,8.44
2022-12-29T16:34:52.540Z,8.41
2022-12-29T16:37:28.620Z,8.42
2022-12-29T16:40:01.643Z,8.31
2022-12-29T16:42:50.596Z,8.36
2022-12-29T16:45:28.867Z,8.44
2022-12-29T16:48:14.494Z,8.46
2022-12-29T16:50:50.477Z,8.45
2022-12-29T16:53:25.564Z,8.46
2022-12-29T16:56:23.507Z,8.43
2022-12-29T16:58:59.611Z,8.46
2022-12-29T17:01:32.551Z,8.47
2022-12-29T17:04:05.826Z,8.45
2022-12-29T17:06:39.497Z,8.52
2022-12-29T17:09:20.565Z,8.52
2022-12-29T17:12:10.434Z,8.57
2022-12-29T17:14:53.840Z,8.59
2022-12-29T17:17:50.529Z,8.61
2022-12-29T17:20:25.873Z,8.59
2022-12-29T17:23:00.477Z,8.53
2022-12-29T17:25:44.537Z,8.58
2022-12-29T17:28:27.592Z,8.60
2022-12-29T17:31:10.482Z,8.58
2022-12-29T17:33:46.523Z,8.58
2022-12-29T17:36:13.313Z,8.57
2022-12-29T17:38:46.453Z,8.53
2022-12-29T17:41:21.598Z,8.56
2022-12-29T17:43:54.545Z,8.56
2022-12-29T17:46:21.459Z,8.54
2022-12-29T17:48:54.625Z,8.51
2022-12-29T17:51:22.651Z,8.54
2022-12-29T17:53:50.403Z,8.58
2022-12-29T17:56:23.530Z,8.53
2022-12-29T17:58:50.703Z,8.55
2022-12-29T18:01:32.553Z,8.54
2022-12-29T18:04:09.533Z,8.53
2022-12-29T18:06:42.538Z,8.51
2022-12-29T18:09:10.799Z,8.44
2022-12-29T18:11:49.494Z,8.49
2022-12-29T18:14:17.393Z,8.36
2022-12-29T18:16:50.593Z,8.39
2022-12-29T18:19:17.372Z,8.41
2022-12-29T18:21:50.545Z,8.34
2022-12-29T18:24:23.543Z,8.34
2022-12-29T18:26:57.672Z,8.26
2022-12-29T18:29:30.594Z,8.28
2022-12-29T18:32:03.508Z,8.23
2022-12-29T18:34:36.721Z,8.21
2022-12-29T18:37:10.621Z,8.19
2022-12-29T18:39:37.414Z,8.17
2022-12-29T18:42:05.227Z,8.17
2022-12-29T18:44:38.542Z,8.03
2022-12-29T18:47:07.049Z,8.03
2022-12-29T18:49:33.803Z,8.00
2022-12-29T18:52:06.555Z,7.92
2022-12-29T18:54:34.290Z,7.85
2022-12-29T18:57:07.578Z,7.93
2022-12-29T18:59:34.287Z,7.95
2022-12-29T19:02:07.617Z,7.89
2022-12-29T19:04:40.711Z,7.88
2022-12-29T19:07:13.540Z,7.90
2022-12-29T19:09:40.298Z,7.88
2022-12-29T19:12:13.565Z,7.80
2022-12-29T19:14:40.343Z,7.81
2022-12-29T19:17:18.513Z,7.69
2022-12-29T19:19:51.606Z,7.72
2022-12-29T19:22:24.560Z,7.78
2022-12-29T19:25:00.163Z,7.71
2022-12-29T19:27:34.928Z,7.71
2022-12-29T19:30:10.628Z,7.72
2022-12-29T19:32:43.653Z,7.72
2022-12-29T19:35:11.753Z,7.65
2022-12-29T19:37:47.645Z,7.61
2022-12-29T19:40:23.588Z,7.54
2022-12-29T19:42:51.255Z,7.61
2022-12-29T19:45:24.819Z,7.57
2022-12-29T19:47:53.246Z,7.57
2022-12-29T19:50:26.782Z,7.56
2022-12-29T19:53:01.837Z,7.47
2022-12-29T19:55:38.584Z,7.49
2022-12-29T19:58:05.321Z,7.57
2022-12-29T20:00:38.665Z,7.56
2022-12-29T20:03:05.385Z,7.47
2022-12-29T20:05:38.600Z,7.53
2022-12-29T20:11:43.556Z,7.53
2022-12-29T20:14:10.117Z,7.46
2022-12-29T20:17:08.857Z,7.54
2022-12-29T20:19:37.556Z,7.53
2022-12-29T20:22:12.622Z,7.51
2022-12-29T20:24:43.883Z,7.50
2022-12-29T20:27:27.607Z,7.50
2022-12-29T20:29:54.345Z,7.50
2022-12-29T20:32:29.800Z,7.45
2022-12-29T20:34:56.623Z,7.47
2022-12-29T20:37:29.614Z,7.43
2022-12-29T20:40:02.611Z,7.36
2022-12-29T20:42:29.399Z,7.44
2022-12-29T20:45:02.591Z,7.34
2022-12-29T20:47:29.259Z,7.40
2022-12-29T20:50:02.658Z,7.35
2022-12-29T20:52:35.835Z,7.34
2022-12-29T20:55:09.762Z,7.32
2022-12-29T20:58:13.668Z,7.33
2022-12-29T21:00:29.797Z,7.33
2022-12-29T21:02:58.065Z,7.34
2022-12-29T21:05:31.826Z,7.29
2022-12-29T21:07:59.876Z,7.27
2022-12-29T21:10:33.618Z,7.27
2022-12-29T21:13:08.649Z,7.21
2022-12-29T21:15:41.626Z,7.23
2022-12-29T21:18:14.630Z,7.24
2022-12-29T21:20:48.729Z,7.25
2022-12-29T21:23:21.634Z,7.26
2022-12-29T21:25:55.743Z,7.24
2022-12-29T21:28:35.814Z,7.28
2022-12-29T21:31:28.219Z,7.23
2022-12-29T21:34:02.663Z,7.31
2022-12-29T21:36:30.385Z,7.29
2022-12-29T21:39:04.613Z,7.25
2022-12-29T21:41:32.050Z,7.27
2022-12-29T21:44:23.587Z,7.13
2022-12-29T21:46:58.855Z,7.21
2022-12-29T21:49:33.641Z,7.17
2022-12-29T21:52:00.318Z,7.23
2022-12-29T21:54:53.661Z,7.21
2022-12-29T21:57:38.611Z,7.16
2022-12-29T22:00:32.616Z,7.14
2022-12-29T22:03:22.910Z,7.08
2022-12-29T22:06:16.623Z,7.09
2022-12-29T22:09:03.330Z,7.01
2022-12-29T22:11:55.688Z,6.98
2022-12-29T22:14:28.689Z,6.99
2022-12-29T22:16:55.389Z,7.00
2022-12-29T22:19:28.636Z,7.01
2022-12-29T22:22:01.651Z,6.93
2022-12-29T22:24:28.328Z,6.97
2022-12-29T22:27:09.981Z,6.99
2022-12-29T22:29:43.015Z,6.98
2022-12-29T22:32:15.694Z,6.99
2022-12-29T22:34:48.599Z,6.96
2022-12-29T22:37:16.260Z,6.91
2022-12-29T22:39:49.681Z,6.88
2022-12-29T22:42:16.264Z,6.93
2022-12-29T22:44:49.654Z,6.91
2022-12-29T22:47:16.373Z,6.92
2022-12-29T22:49:49.614Z,6.92
2022-12-29T22:52:22.658Z,6.94
2022-12-29T22:54:56.744Z,6.95
2022-12-29T22:57:31.699Z,6.93
2022-12-29T22:59:58.394Z,6.94
2022-12-29T23:02:31.906Z,6.93
2022-12-29T23:05:03.679Z,6.82
2022-12-29T23:07:37.665Z,6.93
2022-12-29T23:10:05.669Z,6.95
2022-12-29T23:12:39.642Z,6.91
2022-12-29T23:15:06.892Z,6.96
2022-12-29T23:17:39.678Z,6.91
2022-12-29T23:20:07.666Z,6.95
2022-12-29T23:22:40.681Z,6.89
2022-12-29T23:25:07.789Z,6.93
2022-12-29T23:27:40.651Z,6.79
2022-12-29T23:30:07.996Z,6.70
2022-12-29T23:32:41.727Z,6.77
2022-12-29T23:35:09.906Z,6.78
2022-12-29T23:37:42.660Z,6.75
2022-12-29T23:40:16.808Z,6.74
2022-12-29T23:42:49.680Z,6.72
2022-12-29T23:45:22.753Z,6.72
2022-12-29T23:47:49.360Z,6.76
2022-12-29T23:50:22.716Z,6.73
2022-12-29T23:52:49.353Z,6.73
2022-12-29T23:55:22.714Z,6.70
2022-12-29T23:57:49.279Z,6.69
